createdAt,value
2023-04-07T00:00:16.210Z,100241.66
2023-04-07T00:02:49.066Z,100241.38
2023-04-07T00:05:18.920Z,100243.81
2023-04-07T00:07:55.884Z,100232.50
2023-04-07T00:10:26.613Z,100239.41
2023-04-07T00:12:56.254Z,100237.53
2023-04-07T00:15:25.798Z,100237.53
2023-04-07T00:17:57.963Z,100233.06
2023-04-07T00:20:27.687Z,100235.63
2023-04-07T00:22:57.227Z,100233.03
2023-04-07T00:25:26.831Z,100227.75
2023-04-07T00:27:56.370Z,100226.16
2023-04-07T00:30:26.001Z,100223.50
2023-04-07T00:32:58.194Z,100217.13
2023-04-07T00:35:27.791Z,100211.75
2023-04-07T00:37:57.326Z,100213.56
2023-04-07T00:40:27.098Z,100213.56
2023-04-07T00:42:56.648Z,100215.09
2023-04-07T00:45:26.237Z,100212.31
2023-04-07T00:47:59.745Z,100207.09
2023-04-07T00:50:29.500Z,100204.50
2023-04-07T00:52:59.114Z,100194.06
2023-04-07T00:55:28.702Z,100194.91
2023-04-07T00:58:00.544Z,100194.91
2023-04-07T01:00:30.801Z,100191.41
2023-04-07T01:03:09.495Z,100183.66
2023-04-07T01:05:45.741Z,100188.78
2023-04-07T01:08:20.612Z,100184.31
2023-04-07T01:10:54.694Z,100186.81
2023-04-07T01:13:31.693Z,100181.44
2023-04-07T01:16:04.317Z,100186.47
2023-04-07T01:18:39.678Z,100188.09
2023-04-07T01:21:12.430Z,100179.47
2023-04-07T01:23:54.873Z,100185.44
2023-04-07T01:26:29.345Z,100179.34
2023-04-07T01:29:14.970Z,100173.84
2023-04-07T01:31:51.804Z,100176.34
2023-04-07T01:34:22.365Z,100171.09
2023-04-07T01:36:54.044Z,100181.53
2023-04-07T01:39:24.658Z,100177.97
2023-04-07T01:41:55.836Z,100171.66
2023-04-07T01:44:26.704Z,100173.19
2023-04-07T01:47:00.127Z,100175.78
2023-04-07T01:49:30.095Z,100175.78
2023-04-07T01:52:00.916Z,100172.34
2023-04-07T01:54:31.738Z,100167.94
2023-04-07T01:57:01.661Z,100167.88
2023-04-07T01:59:31.436Z,100166.06
2023-04-07T02:02:03.748Z,100163.47
2023-04-07T02:04:39.277Z,100159.13
2023-04-07T02:07:15.492Z,100162.50
2023-04-07T02:09:46.390Z,100162.56
2023-04-07T02:12:18.651Z,100153.81
2023-04-07T02:14:48.675Z,100159.91
2023-04-07T02:17:21.960Z,100152.09
2023-04-07T02:19:53.430Z,100152.16
2023-04-07T02:22:23.030Z,100142.53
2023-04-07T02:24:52.607Z,100137.50
2023-04-07T02:27:22.122Z,100144.47
2023-04-07T02:29:51.702Z,100143.47
2023-04-07T02:32:23.806Z,100138.28
2023-04-07T02:34:53.356Z,100133.88
2023-04-07T02:37:22.930Z,100134.78
2023-04-07T02:39:52.463Z,100145.97
2023-04-07T02:42:21.968Z,100139.78
2023-04-07T02:44:51.476Z,100145.84
2023-04-07T02:47:23.659Z,100123.38
2023-04-07T02:49:53.210Z,100127.78
2023-04-07T02:52:22.732Z,100123.50
2023-04-07T02:54:52.625Z,100132.13
2023-04-07T02:57:22.369Z,100129.53
2023-04-07T02:59:51.946Z,100127.72
2023-04-07T03:02:24.100Z,100124.28
2023-04-07T03:04:54.781Z,100125.97
2023-04-07T03:07:24.427Z,100126.16
2023-04-07T03:09:53.965Z,100123.56
2023-04-07T03:12:23.481Z,100119.13
2023-04-07T03:14:53.048Z,100118.06
2023-04-07T03:17:25.433Z,100115.47
2023-04-07T03:19:55.028Z,100125.06
2023-04-07T03:22:24.595Z,100120.78
2023-04-07T03:24:54.117Z,100124.34
2023-04-07T03:27:23.772Z,100129.53
2023-04-07T03:29:53.820Z,100129.53
2023-04-07T03:32:26.002Z,100132.06
2023-04-07T03:34:55.562Z,100134.59
2023-04-07T03:37:25.120Z,100125.97
2023-04-07T03:39:54.903Z,100131.28
2023-04-07T03:42:24.437Z,100130.44
2023-04-07T03:44:54.014Z,100120.91
2023-04-07T03:47:26.185Z,100120.06
2023-04-07T03:49:55.707Z,100116.63
2023-04-07T03:52:25.236Z,100118.34
2023-04-07T03:54:54.742Z,100122.66
2023-04-07T03:57:24.704Z,100118.34
2023-04-07T03:59:54.632Z,100119.22
2023-04-07T04:02:26.798Z,100115.69
2023-04-07T04:04:56.599Z,100127.78
2023-04-07T04:07:26.522Z,100116.53
2023-04-07T04:09:56.297Z,100119.94
2023-04-07T04:12:25.866Z,100119.13
2023-04-07T04:14:55.424Z,100116.31
2023-04-07T04:17:28.274Z,100116.91
2023-04-07T04:19:59.247Z,100119.44
2023-04-07T04:22:28.804Z,100117.56
2023-04-07T04:24:58.362Z,100124.59
2023-04-07T04:27:27.886Z,100122.81
2023-04-07T04:29:57.392Z,100125.44
2023-04-07T04:32:29.631Z,100122.78
2023-04-07T04:34:59.201Z,100127.13
2023-04-07T04:37:28.935Z,100124.59
2023-04-07T04:39:58.462Z,100122.81
2023-04-07T04:42:28.945Z,100128.13
2023-04-07T04:44:58.589Z,100129.91
2023-04-07T04:47:30.770Z,100136.84
2023-04-07T04:50:00.680Z,100126.41
2023-04-07T04:52:30.257Z,100128.19
2023-04-07T04:54:59.806Z,100134.38
2023-04-07T04:57:29.366Z,100125.72
2023-04-07T04:59:58.946Z,100130.00
2023-04-07T05:02:31.260Z,100130.06
2023-04-07T05:05:01.277Z,100131.00
2023-04-07T05:07:31.203Z,100128.50
2023-04-07T05:10:01.603Z,100123.16
2023-04-07T05:12:31.333Z,100131.78
2023-04-07T05:15:00.852Z,100129.19
2023-04-07T05:17:32.994Z,100133.59
2023-04-07T05:20:02.553Z,100134.59
2023-04-07T05:22:32.263Z,100134.59
2023-04-07T05:25:01.874Z,100130.94
2023-04-07T05:27:31.437Z,100132.78
2023-04-07T05:30:01.032Z,100133.66
2023-04-07T05:32:33.283Z,100142.28
2023-04-07T05:35:02.876Z,100135.44
2023-04-07T05:37:32.496Z,100133.59
2023-04-07T05:40:02.035Z,100137.19
2023-04-07T05:42:31.569Z,100128.56
2023-04-07T05:45:01.112Z,100129.41
2023-04-07T05:47:33.323Z,100127.84
2023-04-07T05:50:02.873Z,100124.34
2023-04-07T05:52:32.480Z,100130.31
2023-04-07T05:55:02.572Z,100127.91
2023-04-07T05:57:33.304Z,100127.06
2023-04-07T06:00:02.950Z,100132.31
2023-04-07T06:02:35.263Z,100135.13
2023-04-07T06:05:04.994Z,100140.53
2023-04-07T06:07:34.565Z,100139.84
2023-04-07T06:10:04.152Z,100135.63
2023-04-07T06:12:33.724Z,100133.03
2023-04-07T06:15:03.282Z,100135.72
2023-04-07T06:17:35.522Z,100138.22
2023-04-07T06:20:05.122Z,100139.00
2023-04-07T06:22:34.696Z,100134.22
2023-04-07T06:25:04.257Z,100132.59
2023-04-07T06:27:33.819Z,100132.75
2023-04-07T06:30:03.576Z,100131.41
2023-04-07T06:32:36.213Z,100135.00
2023-04-07T06:35:05.940Z,100138.34
2023-04-07T06:37:35.595Z,100134.69
2023-04-07T06:40:05.146Z,100133.03
2023-04-07T06:42:34.663Z,100139.09
2023-04-07T06:45:04.248Z,100133.03
2023-04-07T06:47:36.489Z,100125.56
2023-04-07T06:50:06.306Z,100134.22
2023-04-07T06:52:35.864Z,100127.97
2023-04-07T06:55:05.501Z,100121.22
2023-04-07T06:57:35.023Z,100122.81
2023-04-07T07:00:04.791Z,100121.56
2023-04-07T07:02:37.105Z,100119.22
2023-04-07T07:05:08.458Z,100126.34
2023-04-07T07:07:38.074Z,100116.47
2023-04-07T07:10:12.206Z,100114.72
2023-04-07T07:12:41.736Z,100116.03
2023-04-07T07:15:12.222Z,100108.88
2023-04-07T07:17:44.411Z,100115.50
2023-04-07T07:20:14.678Z,100121.94
2023-04-07T07:22:44.395Z,100130.47
2023-04-07T07:25:14.150Z,100124.84
2023-04-07T07:27:43.739Z,100134.00
2023-04-07T07:30:14.227Z,100131.88
2023-04-07T07:32:46.469Z,100127.31
2023-04-07T07:35:16.097Z,100128.00
2023-04-07T07:37:46.112Z,100133.03
2023-04-07T07:40:15.986Z,100130.53
2023-04-07T07:42:45.557Z,100136.00
2023-04-07T07:45:15.138Z,100142.81
2023-04-07T07:47:47.347Z,100142.97
2023-04-07T07:50:16.905Z,100139.66
2023-04-07T07:52:47.960Z,100154.47
2023-04-07T07:55:17.581Z,100153.69
2023-04-07T07:57:47.144Z,100153.84
2023-04-07T08:00:17.418Z,100159.63
2023-04-07T08:02:49.632Z,100156.06
2023-04-07T08:05:19.255Z,100159.44
2023-04-07T08:07:49.042Z,100158.16
2023-04-07T08:10:20.360Z,100141.00
2023-04-07T08:12:49.948Z,100146.41
2023-04-07T08:15:19.568Z,100155.56
2023-04-07T08:17:52.990Z,100154.81
2023-04-07T08:20:24.073Z,100143.81
2023-04-07T08:22:53.818Z,100150.34
2023-04-07T08:25:25.339Z,100139.66
2023-04-07T08:27:54.896Z,100132.81
2023-04-07T08:30:24.720Z,100145.53
2023-04-07T08:32:56.937Z,100140.72
2023-04-07T08:35:26.625Z,100148.94
2023-04-07T08:37:56.430Z,100149.22
2023-04-07T08:40:27.448Z,100142.50
2023-04-07T08:42:57.316Z,100134.25
2023-04-07T08:45:29.246Z,100138.59
2023-04-07T08:48:03.892Z,100138.03
2023-04-07T08:50:34.728Z,100143.31
2023-04-07T08:53:08.840Z,100154.00
2023-04-07T08:55:38.933Z,100140.75
2023-04-07T08:58:12.535Z,100145.31
2023-04-07T09:00:46.005Z,100148.84
2023-04-07T09:03:19.560Z,100140.84
2023-04-07T09:05:50.124Z,100145.03
2023-04-07T09:08:19.718Z,100142.84
2023-04-07T09:10:49.328Z,100144.38
2023-04-07T09:13:18.923Z,100146.56
2023-04-07T09:15:48.719Z,100143.72
2023-04-07T09:18:21.221Z,100143.59
2023-04-07T09:21:01.380Z,100140.66
2023-04-07T09:23:32.861Z,100142.63
2023-04-07T09:26:04.106Z,100144.00
2023-04-07T09:28:44.680Z,100138.66
2023-04-07T09:31:14.432Z,100137.28
2023-04-07T09:33:46.919Z,100139.25
2023-04-07T09:36:16.858Z,100141.34
2023-04-07T09:38:47.668Z,100131.84
2023-04-07T09:41:19.393Z,100143.25
2023-04-07T09:43:50.254Z,100136.78
2023-04-07T09:46:21.256Z,100134.28
2023-04-07T09:49:05.395Z,100138.25
2023-04-07T09:51:35.922Z,100134.28
2023-04-07T09:54:05.575Z,100143.19
2023-04-07T09:56:35.268Z,100148.13
2023-04-07T09:59:05.905Z,100139.72
2023-04-07T10:01:35.654Z,100142.66
2023-04-07T10:04:08.349Z,100137.19
2023-04-07T10:06:38.069Z,100137.63
2023-04-07T10:09:07.676Z,100136.84
2023-04-07T10:11:37.732Z,100135.31
2023-04-07T10:14:07.717Z,100134.63
2023-04-07T10:16:37.549Z,100133.59
2023-04-07T10:19:10.950Z,100130.50
2023-04-07T10:21:43.531Z,100130.94
2023-04-07T10:24:29.097Z,100127.28
2023-04-07T10:27:02.640Z,100122.69
2023-04-07T10:29:34.240Z,100124.59
2023-04-07T10:32:05.089Z,100130.16
2023-04-07T10:35:02.344Z,100122.63
2023-04-07T10:37:34.496Z,100126.44
2023-04-07T10:40:31.666Z,100125.56
2023-04-07T10:43:01.488Z,100130.19
2023-04-07T10:45:56.622Z,100127.53
2023-04-07T10:48:28.583Z,100123.00
2023-04-07T10:51:21.861Z,100133.44
2023-04-07T10:54:22.552Z,100125.75
2023-04-07T10:57:08.122Z,100120.53
2023-04-07T10:59:37.910Z,100126.94
2023-04-07T11:02:35.793Z,100134.94
2023-04-07T11:05:06.038Z,100123.19
2023-04-07T11:07:54.129Z,100133.56
2023-04-07T11:10:24.314Z,100130.31
2023-04-07T11:13:10.596Z,100130.09
2023-04-07T11:15:41.220Z,100124.97
2023-04-07T11:18:18.816Z,100135.78
2023-04-07T11:20:53.657Z,100135.53
2023-04-07T11:23:27.569Z,100133.53
2023-04-07T11:26:03.492Z,100136.88
2023-04-07T11:28:34.081Z,100132.97
2023-04-07T11:31:03.717Z,100132.25
2023-04-07T11:33:37.163Z,100137.38
2023-04-07T11:36:07.530Z,100129.97
2023-04-07T11:38:44.924Z,100130.97
2023-04-07T11:41:17.703Z,100130.78
2023-04-07T11:43:47.688Z,100122.88
2023-04-07T11:46:20.914Z,100131.38
2023-04-07T11:48:50.526Z,100126.38
2023-04-07T11:51:20.910Z,100116.75
2023-04-07T11:53:57.836Z,100116.97
2023-04-07T11:56:28.300Z,100115.53
2023-04-07T11:58:58.439Z,100119.16
2023-04-07T12:01:42.394Z,100118.44
2023-04-07T12:04:16.336Z,100113.47
2023-04-07T12:06:47.325Z,100110.00
2023-04-07T12:09:36.200Z,100119.38
2023-04-07T12:12:08.118Z,100104.47
2023-04-07T12:14:38.178Z,100107.53
2023-04-07T12:17:09.591Z,100110.50
2023-04-07T12:19:39.801Z,100100.34
2023-04-07T12:22:09.429Z,100108.25
2023-04-07T12:24:42.016Z,100103.16
2023-04-07T12:27:12.014Z,100110.28
2023-04-07T12:29:41.887Z,100101.06
2023-04-07T12:32:11.477Z,100107.16
2023-04-07T12:34:41.089Z,100103.06
2023-04-07T12:37:10.655Z,100106.03
2023-04-07T12:39:42.781Z,100104.84
2023-04-07T12:42:12.465Z,100103.28
2023-04-07T12:44:42.076Z,100095.19
2023-04-07T12:47:12.452Z,100100.47
2023-04-07T12:49:41.986Z,100098.44
2023-04-07T12:52:12.265Z,100100.78
2023-04-07T12:54:45.581Z,100091.47
2023-04-07T12:57:16.207Z,100093.28
2023-04-07T12:59:46.011Z,100093.72
2023-04-07T13:02:18.347Z,100087.69
2023-04-07T13:04:49.049Z,100088.47
2023-04-07T13:07:19.228Z,100088.50
2023-04-07T13:09:51.397Z,100088.78
2023-04-07T13:12:21.211Z,100092.41
2023-04-07T13:14:59.713Z,100088.38
2023-04-07T13:17:30.019Z,100085.84
2023-04-07T13:19:59.635Z,100089.03
2023-04-07T13:22:29.666Z,100098.63
2023-04-07T13:25:02.347Z,100083.16
2023-04-07T13:27:31.998Z,100086.78
2023-04-07T13:30:01.577Z,100090.56
2023-04-07T13:32:31.532Z,100079.97
2023-04-07T13:35:01.076Z,100082.31
2023-04-07T13:37:30.670Z,100084.00
2023-04-07T13:40:03.038Z,100080.66
2023-04-07T13:42:32.601Z,100078.59
2023-04-07T13:45:02.163Z,100086.34
2023-04-07T13:47:34.390Z,100083.28
2023-04-07T13:50:04.585Z,100087.81
2023-04-07T13:52:35.672Z,100085.22
2023-04-07T13:55:09.141Z,100092.06
2023-04-07T13:57:38.766Z,100092.97
2023-04-07T14:00:10.127Z,100077.06
2023-04-07T14:02:40.229Z,100091.69
2023-04-07T14:05:10.267Z,100088.28
2023-04-07T14:07:39.806Z,100083.88
2023-04-07T14:10:12.480Z,100086.63
2023-04-07T14:12:42.243Z,100083.78
2023-04-07T14:15:13.045Z,100081.97
2023-04-07T14:17:42.628Z,100092.22
2023-04-07T14:20:12.705Z,100085.88
2023-04-07T14:22:42.229Z,100099.53
2023-04-07T14:25:14.412Z,100090.06
2023-04-07T14:27:43.950Z,100097.97
2023-04-07T14:30:14.878Z,100084.13
2023-04-07T14:32:44.524Z,100085.00
2023-04-07T14:35:14.113Z,100086.69
2023-04-07T14:37:43.652Z,100083.31
2023-04-07T14:40:16.196Z,100085.09
2023-04-07T14:42:45.747Z,100085.09
2023-04-07T14:45:15.671Z,100093.09
2023-04-07T14:47:45.248Z,100088.75
2023-04-07T14:50:14.913Z,100087.59
2023-04-07T14:52:44.789Z,100090.97
2023-04-07T14:55:17.112Z,100092.75
2023-04-07T14:57:46.700Z,100085.09
2023-04-07T15:00:17.438Z,100087.78
2023-04-07T15:02:47.231Z,100082.63
2023-04-07T15:05:16.957Z,100094.72
2023-04-07T15:07:50.050Z,100090.47
2023-04-07T15:10:22.946Z,100088.94
2023-04-07T15:12:52.507Z,100095.06
2023-04-07T15:15:22.295Z,100098.50
2023-04-07T15:17:51.857Z,100100.91
2023-04-07T15:20:21.445Z,100098.34
2023-04-07T15:22:50.966Z,100095.84
2023-04-07T15:25:23.316Z,100100.94
2023-04-07T15:27:52.907Z,100103.75
2023-04-07T15:30:22.515Z,100096.66
2023-04-07T15:33:02.014Z,100101.00
2023-04-07T15:35:31.557Z,100102.53
2023-04-07T15:38:02.430Z,100107.59
2023-04-07T15:40:34.831Z,100098.81
2023-04-07T15:43:04.383Z,100107.78
2023-04-07T15:45:34.045Z,100099.88
2023-04-07T15:48:03.586Z,100106.00
2023-04-07T15:50:34.506Z,100088.53
2023-04-07T15:53:04.839Z,100093.84
2023-04-07T15:55:38.305Z,100092.88
2023-04-07T15:58:08.549Z,100091.09
2023-04-07T16:00:38.532Z,100095.28
2023-04-07T16:03:08.337Z,100092.63
2023-04-07T16:05:38.267Z,100084.75
2023-04-07T16:08:08.052Z,100088.38
2023-04-07T16:10:40.216Z,100090.16
2023-04-07T16:13:09.852Z,100085.88
2023-04-07T16:15:41.146Z,100086.69
2023-04-07T16:18:12.751Z,100078.03
2023-04-07T16:20:42.455Z,100083.13
2023-04-07T16:23:12.604Z,100081.34
2023-04-07T16:25:44.880Z,100078.66
2023-04-07T16:28:14.446Z,100080.44
2023-04-07T16:30:44.043Z,100085.56
2023-04-07T16:33:13.584Z,100079.50
2023-04-07T16:35:44.347Z,100086.31
2023-04-07T16:38:14.012Z,100094.97
2023-04-07T16:41:02.600Z,100083.59
2023-04-07T16:43:33.306Z,100080.06
2023-04-07T16:46:02.996Z,100085.16
2023-04-07T16:48:32.749Z,100089.50
2023-04-07T16:51:02.362Z,100090.44
2023-04-07T16:53:31.900Z,100094.78
2023-04-07T16:56:04.019Z,100091.28
2023-04-07T16:58:33.613Z,100101.69
2023-04-07T17:01:03.198Z,100097.19
2023-04-07T17:03:32.936Z,100104.13
2023-04-07T17:06:05.760Z,100101.56
2023-04-07T17:08:35.478Z,100109.47
2023-04-07T17:11:09.050Z,100103.34
2023-04-07T17:13:40.307Z,100100.66
2023-04-07T17:16:14.712Z,100105.91
2023-04-07T17:18:44.481Z,100108.38
2023-04-07T17:21:15.576Z,100109.28
2023-04-07T17:23:45.679Z,100111.84
2023-04-07T17:26:17.799Z,100117.88
2023-04-07T17:28:48.598Z,100123.00
2023-04-07T17:31:18.300Z,100116.09
2023-04-07T17:33:48.273Z,100116.94
2023-04-07T17:36:18.178Z,100118.72
2023-04-07T17:38:47.751Z,100122.13
2023-04-07T17:41:19.874Z,100129.03
2023-04-07T17:43:49.701Z,100122.94
2023-04-07T17:46:19.466Z,100129.00
2023-04-07T17:48:49.266Z,100133.38
2023-04-07T17:51:19.162Z,100133.44
2023-04-07T17:53:48.929Z,100130.94
2023-04-07T17:56:21.344Z,100129.97
2023-04-07T17:58:51.218Z,100137.78
2023-04-07T18:01:20.784Z,100130.84
2023-04-07T18:03:51.647Z,100131.69
2023-04-07T18:06:22.048Z,100136.91
2023-04-07T18:08:51.948Z,100143.88
2023-04-07T18:11:24.133Z,100140.44
2023-04-07T18:13:54.090Z,100133.44
2023-04-07T18:16:23.732Z,100138.66
2023-04-07T18:18:53.295Z,100138.66
2023-04-07T18:21:22.903Z,100145.63
2023-04-07T18:23:52.437Z,100142.16
2023-04-07T18:26:24.534Z,100149.13
2023-04-07T18:28:54.096Z,100154.28
2023-04-07T18:31:23.757Z,100150.88
2023-04-07T18:33:53.347Z,100146.56
2023-04-07T18:36:25.694Z,100157.88
2023-04-07T18:38:55.248Z,100148.34
2023-04-07T18:41:27.472Z,100157.03
2023-04-07T18:43:57.041Z,100154.38
2023-04-07T18:46:27.508Z,100157.88
2023-04-07T18:48:57.142Z,100155.22
2023-04-07T18:51:26.681Z,100149.16
2023-04-07T18:53:56.258Z,100149.16
2023-04-07T18:56:28.742Z,100150.09
2023-04-07T18:58:58.579Z,100158.00
2023-04-07T19:01:28.293Z,100155.38
2023-04-07T19:03:57.958Z,100145.84
2023-04-07T19:06:28.162Z,100149.25
2023-04-07T19:08:57.934Z,100150.19
2023-04-07T19:11:30.102Z,100150.16
2023-04-07T19:13:59.645Z,100157.97
2023-04-07T19:16:29.314Z,100155.41
2023-04-07T19:18:58.839Z,100162.34
2023-04-07T19:21:28.755Z,100161.41
2023-04-07T19:23:59.655Z,100156.28
2023-04-07T19:26:31.943Z,100157.16
2023-04-07T19:29:03.217Z,100157.06
2023-04-07T19:31:32.947Z,100157.88
2023-04-07T19:34:02.575Z,100163.22
2023-04-07T19:36:33.004Z,100159.72
2023-04-07T19:39:04.558Z,100158.00
2023-04-07T19:41:36.723Z,100156.22
2023-04-07T19:44:06.269Z,100151.91
2023-04-07T19:46:36.697Z,100155.38
2023-04-07T19:49:06.224Z,100148.38
2023-04-07T19:51:35.858Z,100156.28
2023-04-07T19:54:05.417Z,100158.06
2023-04-07T19:56:37.763Z,100150.19
2023-04-07T19:59:07.376Z,100151.94
2023-04-07T20:01:37.061Z,100154.47
2023-04-07T20:04:06.746Z,100147.59
2023-04-07T20:06:36.888Z,100142.28
2023-04-07T20:09:06.611Z,100145.81
2023-04-07T20:11:38.741Z,100149.31
2023-04-07T20:14:08.311Z,100152.81
2023-04-07T20:16:37.938Z,100155.41
2023-04-07T20:19:07.499Z,100152.75
2023-04-07T20:21:37.778Z,100157.22
2023-04-07T20:24:07.404Z,100158.84
2023-04-07T20:26:39.512Z,100152.81
2023-04-07T20:29:09.099Z,100158.91
2023-04-07T20:31:38.664Z,100164.09
2023-04-07T20:34:08.232Z,100154.56
2023-04-07T20:36:37.813Z,100153.66
2023-04-07T20:39:07.422Z,100151.88
2023-04-07T20:41:42.863Z,100154.50
2023-04-07T20:44:12.394Z,100154.50
2023-04-07T20:46:42.224Z,100153.72
2023-04-07T20:49:11.748Z,100147.66
2023-04-07T20:51:41.300Z,100152.84
2023-04-07T20:54:10.855Z,100149.41
2023-04-07T20:56:44.779Z,100151.94
2023-04-07T20:59:14.324Z,100145.03
2023-04-07T21:01:44.781Z,100147.63
2023-04-07T21:04:14.567Z,100154.50
2023-04-07T21:06:44.238Z,100144.09
2023-04-07T21:09:13.889Z,100155.38
2023-04-07T21:11:46.139Z,100152.84
2023-04-07T21:14:15.788Z,100158.84
2023-04-07T21:16:45.465Z,100165.84
2023-04-07T21:19:15.369Z,100154.56
2023-04-07T21:21:44.972Z,100164.13
2023-04-07T21:24:14.586Z,100163.19
2023-04-07T21:26:46.755Z,100164.97
2023-04-07T21:29:16.288Z,100164.19
2023-04-07T21:31:46.159Z,100161.53
2023-04-07T21:34:15.722Z,100163.19
2023-04-07T21:36:45.428Z,100158.06
2023-04-07T21:39:14.912Z,100152.91
2023-04-07T21:41:47.055Z,100157.25
2023-04-07T21:44:20.022Z,100157.22
2023-04-07T21:46:49.707Z,100152.84
2023-04-07T21:49:22.503Z,100154.56
2023-04-07T21:51:52.373Z,100145.94
2023-04-07T21:54:22.427Z,100147.63
2023-04-07T21:56:54.570Z,100151.94
2023-04-07T21:59:24.145Z,100152.00
2023-04-07T22:01:53.868Z,100149.44
2023-04-07T22:04:23.670Z,100152.03
2023-04-07T22:06:53.265Z,100157.28
2023-04-07T22:09:23.273Z,100154.66
2023-04-07T22:11:56.010Z,100153.84
2023-04-07T22:14:26.627Z,100151.09
2023-04-07T22:16:56.389Z,100152.03
2023-04-07T22:19:25.898Z,100152.84
2023-04-07T22:21:56.047Z,100159.06
2023-04-07T22:24:25.593Z,100154.69
2023-04-07T22:26:58.981Z,100152.81
2023-04-07T22:29:28.522Z,100152.84
2023-04-07T22:31:58.067Z,100149.53
2023-04-07T22:34:27.718Z,100147.69
2023-04-07T22:36:57.872Z,100153.72
2023-04-07T22:39:27.397Z,100157.25
2023-04-07T22:41:59.544Z,100157.28
2023-04-07T22:44:29.098Z,100164.25
2023-04-07T22:46:59.123Z,100157.34
2023-04-07T22:49:28.843Z,100159.94
2023-04-07T22:51:58.418Z,100171.16
2023-04-07T22:54:27.940Z,100172.88
2023-04-07T22:57:00.119Z,100174.72
2023-04-07T22:59:29.688Z,100173.00
2023-04-07T23:01:59.424Z,100181.84
2023-04-07T23:04:29.022Z,100180.13
2023-04-07T23:06:58.604Z,100180.22
2023-04-07T23:09:28.445Z,100190.66
2023-04-07T23:12:01.558Z,100189.03
2023-04-07T23:14:31.129Z,100186.44
2023-04-07T23:17:01.347Z,100194.16
2023-04-07T23:19:30.912Z,100188.94
2023-04-07T23:22:00.489Z,100191.53
2023-04-07T23:24:30.029Z,100195.91
2023-04-07T23:27:02.189Z,100194.19
2023-04-07T23:29:31.745Z,100193.31
2023-04-07T23:32:01.496Z,100196.81
2023-04-07T23:34:31.083Z,100198.28
2023-04-07T23:37:00.603Z,100194.69
2023-04-07T23:39:30.148Z,100196.44
2023-04-07T23:42:02.274Z,100195.66
2023-04-07T23:44:31.834Z,100203.59
2023-04-07T23:47:01.560Z,100207.91
2023-04-07T23:49:31.530Z,100202.59
2023-04-07T23:52:01.933Z,100207.84
2023-04-07T23:54:31.677Z,100204.31
2023-04-07T23:57:04.501Z,100203.50
2023-04-07T23:59:34.090Z,100205.25
